sensor_id;sensor_type;location;lat;lon;timestamp;P1;durP1;ratioP1;P2;durP2;ratioP2
41887;SDS011;63122;52.424;13.458;2022-11-23T00:02:28;85.10;;;33.83;;
41887;SDS011;63122;52.424;13.458;2022-11-23T00:04:58;84.60;;;33.33;;
41887;SDS011;63122;52.424;13.458;2022-11-23T00:07:31;86.07;;;33.17;;
41887;SDS011;63122;52.424;13.458;2022-11-23T00:10:02;88.00;;;34.00;;
41887;SDS011;63122;52.424;13.458;2022-11-23T00:12:32;84.17;;;33.80;;
41887;SDS011;63122;52.424;13.458;2022-11-23T00:15:03;83.83;;;34.33;;
41887;SDS011;63122;52.424;13.458;2022-11-23T00:17:34;87.27;;;34.53;;
41887;SDS011;63122;52.424;13.458;2022-11-23T00:20:05;77.70;;;33.13;;
41887;SDS011;63122;52.424;13.458;2022-11-23T00:22:39;85.03;;;35.00;;
41887;SDS011;63122;52.424;13.458;2022-11-23T00:25:10;82.10;;;34.93;;
41887;SDS011;63122;52.424;13.458;2022-11-23T00:27:40;78.60;;;32.50;;
41887;SDS011;63122;52.424;13.458;2022-11-23T00:30:11;93.53;;;35.57;;
41887;SDS011;63122;52.424;13.458;2022-11-23T00:32:42;88.60;;;34.40;;
41887;SDS011;63122;52.424;13.458;2022-11-23T00:35:12;82.50;;;34.07;;
41887;SDS011;63122;52.424;13.458;2022-11-23T00:37:45;79.67;;;33.90;;
41887;SDS011;63122;52.424;13.458;2022-11-23T00:40:15;86.20;;;33.90;;
41887;SDS011;63122;52.424;13.458;2022-11-23T00:42:45;85.27;;;34.83;;
41887;SDS011;63122;52.424;13.458;2022-11-23T00:45:15;90.27;;;34.17;;
41887;SDS011;63122;52.424;13.458;2022-11-23T00:47:46;93.37;;;34.73;;
41887;SDS011;63122;52.424;13.458;2022-11-23T00:50:16;85.50;;;34.23;;
41887;SDS011;63122;52.424;13.458;2022-11-23T00:52:49;85.30;;;34.57;;
41887;SDS011;63122;52.424;13.458;2022-11-23T00:55:20;76.97;;;33.10;;
41887;SDS011;63122;52.424;13.458;2022-11-23T00:57:49;88.73;;;33.60;;
41887;SDS011;63122;52.424;13.458;2022-11-23T01:00:20;76.80;;;31.33;;
41887;SDS011;63122;52.424;13.458;2022-11-23T01:02:50;91.83;;;35.40;;
41887;SDS011;63122;52.424;13.458;2022-11-23T01:05:21;81.70;;;33.87;;
41887;SDS011;63122;52.424;13.458;2022-11-23T01:07:53;81.90;;;30.80;;
41887;SDS011;63122;52.424;13.458;2022-11-23T01:10:23;79.10;;;32.77;;
41887;SDS011;63122;52.424;13.458;2022-11-23T01:12:53;80.73;;;33.03;;
41887;SDS011;63122;52.424;13.458;2022-11-23T01:15:24;80.67;;;33.57;;
41887;SDS011;63122;52.424;13.458;2022-11-23T01:17:54;88.10;;;34.03;;
41887;SDS011;63122;52.424;13.458;2022-11-23T01:20:24;92.87;;;33.07;;
41887;SDS011;63122;52.424;13.458;2022-11-23T01:22:57;91.53;;;35.00;;
41887;SDS011;63122;52.424;13.458;2022-11-23T01:25:27;99.27;;;36.90;;
41887;SDS011;63122;52.424;13.458;2022-11-23T01:27:57;99.77;;;37.20;;
41887;SDS011;63122;52.424;13.458;2022-11-23T01:30:28;94.13;;;35.57;;
41887;SDS011;63122;52.424;13.458;2022-11-23T01:32:58;88.60;;;34.60;;
41887;SDS011;63122;52.424;13.458;2022-11-23T01:35:29;88.57;;;35.33;;
41887;SDS011;63122;52.424;13.458;2022-11-23T01:38:01;90.93;;;33.90;;
41887;SDS011;63122;52.424;13.458;2022-11-23T01:40:38;86.03;;;34.83;;
41887;SDS011;63122;52.424;13.458;2022-11-23T01:43:12;80.03;;;32.97;;
41887;SDS011;63122;52.424;13.458;2022-11-23T01:45:52;82.17;;;33.53;;
41887;SDS011;63122;52.424;13.458;2022-11-23T01:48:26;80.30;;;33.03;;
41887;SDS011;63122;52.424;13.458;2022-11-23T01:51:00;80.67;;;34.20;;
41887;SDS011;63122;52.424;13.458;2022-11-23T01:53:35;82.67;;;34.20;;
41887;SDS011;63122;52.424;13.458;2022-11-23T01:56:08;83.80;;;33.50;;
41887;SDS011;63122;52.424;13.458;2022-11-23T01:58:41;83.13;;;32.93;;
41887;SDS011;63122;52.424;13.458;2022-11-23T02:01:15;82.00;;;34.40;;
41887;SDS011;63122;52.424;13.458;2022-11-23T02:03:45;84.80;;;33.57;;
41887;SDS011;63122;52.424;13.458;2022-11-23T02:06:17;75.57;;;33.00;;
41887;SDS011;63122;52.424;13.458;2022-11-23T02:08:51;82.80;;;34.27;;
41887;SDS011;63122;52.424;13.458;2022-11-23T02:11:22;87.77;;;33.63;;
41887;SDS011;63122;52.424;13.458;2022-11-23T02:13:52;70.77;;;30.67;;
41887;SDS011;63122;52.424;13.458;2022-11-23T02:16:23;79.50;;;31.33;;
41887;SDS011;63122;52.424;13.458;2022-11-23T02:18:53;82.60;;;32.57;;
41887;SDS011;63122;52.424;13.458;2022-11-23T02:21:24;73.80;;;33.10;;
41887;SDS011;63122;52.424;13.458;2022-11-23T02:23:58;75.00;;;31.90;;
41887;SDS011;63122;52.424;13.458;2022-11-23T02:26:35;74.77;;;32.73;;
41887;SDS011;63122;52.424;13.458;2022-11-23T02:29:07;78.50;;;33.77;;
41887;SDS011;63122;52.424;13.458;2022-11-23T02:31:40;86.77;;;33.27;;
41887;SDS011;63122;52.424;13.458;2022-11-23T02:34:10;72.63;;;31.63;;
41887;SDS011;63122;52.424;13.458;2022-11-23T02:36:41;74.83;;;31.27;;
41887;SDS011;63122;52.424;13.458;2022-11-23T02:39:14;73.60;;;32.97;;
41887;SDS011;63122;52.424;13.458;2022-11-23T02:41:53;68.27;;;31.90;;
41887;SDS011;63122;52.424;13.458;2022-11-23T02:44:30;71.37;;;30.80;;
41887;SDS011;63122;52.424;13.458;2022-11-23T02:47:06;72.03;;;31.07;;
41887;SDS011;63122;52.424;13.458;2022-11-23T02:49:38;71.40;;;31.20;;
41887;SDS011;63122;52.424;13.458;2022-11-23T02:52:09;73.20;;;30.80;;
41887;SDS011;63122;52.424;13.458;2022-11-23T02:54:40;70.77;;;29.83;;
41887;SDS011;63122;52.424;13.458;2022-11-23T02:57:13;70.73;;;30.57;;
41887;SDS011;63122;52.424;13.458;2022-11-23T02:59:43;70.37;;;32.00;;
41887;SDS011;63122;52.424;13.458;2022-11-23T03:02:14;70.43;;;31.00;;
41887;SDS011;63122;52.424;13.458;2022-11-23T03:04:44;71.93;;;29.43;;
41887;SDS011;63122;52.424;13.458;2022-11-23T03:07:15;79.87;;;32.00;;
41887;SDS011;63122;52.424;13.458;2022-11-23T03:09:46;67.77;;;30.17;;
41887;SDS011;63122;52.424;13.458;2022-11-23T03:12:19;72.90;;;31.37;;
41887;SDS011;63122;52.424;13.458;2022-11-23T03:14:49;85.13;;;35.47;;
41887;SDS011;63122;52.424;13.458;2022-11-23T03:17:20;71.87;;;33.17;;
41887;SDS011;63122;52.424;13.458;2022-11-23T03:19:50;91.67;;;41.23;;
41887;SDS011;63122;52.424;13.458;2022-11-23T03:22:21;72.47;;;31.27;;
41887;SDS011;63122;52.424;13.458;2022-11-23T03:24:51;76.17;;;32.03;;
41887;SDS011;63122;52.424;13.458;2022-11-23T03:27:25;74.57;;;32.33;;
41887;SDS011;63122;52.424;13.458;2022-11-23T03:29:58;78.07;;;31.50;;
41887;SDS011;63122;52.424;13.458;2022-11-23T03:32:29;69.63;;;31.20;;
41887;SDS011;63122;52.424;13.458;2022-11-23T03:34:59;70.13;;;30.20;;
41887;SDS011;63122;52.424;13.458;2022-11-23T03:37:30;75.03;;;31.10;;
41887;SDS011;63122;52.424;13.458;2022-11-23T03:40:00;72.00;;;31.10;;
41887;SDS011;63122;52.424;13.458;2022-11-23T03:42:33;76.20;;;31.93;;
41887;SDS011;63122;52.424;13.458;2022-11-23T03:45:03;73.17;;;31.03;;
41887;SDS011;63122;52.424;13.458;2022-11-23T03:47:34;76.17;;;31.10;;
41887;SDS011;63122;52.424;13.458;2022-11-23T03:50:05;76.43;;;32.33;;
41887;SDS011;63122;52.424;13.458;2022-11-23T03:52:36;69.93;;;30.97;;
41887;SDS011;63122;52.424;13.458;2022-11-23T03:55:07;70.63;;;29.43;;
41887;SDS011;63122;52.424;13.458;2022-11-23T03:57:40;74.00;;;30.50;;
41887;SDS011;63122;52.424;13.458;2022-11-23T04:00:10;59.43;;;27.73;;
41887;SDS011;63122;52.424;13.458;2022-11-23T04:02:41;70.77;;;31.03;;
41887;SDS011;63122;52.424;13.458;2022-11-23T04:05:12;68.37;;;30.13;;
41887;SDS011;63122;52.424;13.458;2022-11-23T04:07:42;69.27;;;30.07;;
41887;SDS011;63122;52.424;13.458;2022-11-23T04:10:13;69.73;;;31.70;;
41887;SDS011;63122;52.424;13.458;2022-11-23T04:12:47;74.83;;;31.43;;
41887;SDS011;63122;52.424;13.458;2022-11-23T04:18:34;73.77;;;30.13;;
41887;SDS011;63122;52.424;13.458;2022-11-23T04:21:05;70.60;;;30.20;;
41887;SDS011;63122;52.424;13.458;2022-11-23T04:23:35;68.93;;;29.83;;
41887;SDS011;63122;52.424;13.458;2022-11-23T04:26:05;79.33;;;33.70;;
41887;SDS011;63122;52.424;13.458;2022-11-23T04:28:38;71.60;;;31.10;;
41887;SDS011;63122;52.424;13.458;2022-11-23T04:31:08;66.63;;;29.20;;
41887;SDS011;63122;52.424;13.458;2022-11-23T04:33:39;70.63;;;29.20;;
41887;SDS011;63122;52.424;13.458;2022-11-23T04:36:09;68.30;;;29.80;;
41887;SDS011;63122;52.424;13.458;2022-11-23T04:38:39;67.83;;;28.87;;
41887;SDS011;63122;52.424;13.458;2022-11-23T04:41:10;69.90;;;30.77;;
41887;SDS011;63122;52.424;13.458;2022-11-23T04:43:43;69.53;;;29.03;;
41887;SDS011;63122;52.424;13.458;2022-11-23T04:46:13;60.37;;;27.97;;
41887;SDS011;63122;52.424;13.458;2022-11-23T04:48:43;64.93;;;27.70;;
41887;SDS011;63122;52.424;13.458;2022-11-23T04:51:13;61.33;;;27.13;;
41887;SDS011;63122;52.424;13.458;2022-11-23T04:53:46;68.30;;;29.00;;
41887;SDS011;63122;52.424;13.458;2022-11-23T04:56:16;68.60;;;30.20;;
41887;SDS011;63122;52.424;13.458;2022-11-23T04:58:49;65.47;;;29.00;;
41887;SDS011;63122;52.424;13.458;2022-11-23T05:01:19;72.50;;;29.40;;
41887;SDS011;63122;52.424;13.458;2022-11-23T05:03:49;70.83;;;30.67;;
41887;SDS011;63122;52.424;13.458;2022-11-23T05:06:19;69.37;;;29.40;;
41887;SDS011;63122;52.424;13.458;2022-11-23T05:08:50;73.43;;;31.90;;
41887;SDS011;63122;52.424;13.458;2022-11-23T05:11:20;66.47;;;28.90;;
41887;SDS011;63122;52.424;13.458;2022-11-23T05:13:53;70.20;;;29.87;;
41887;SDS011;63122;52.424;13.458;2022-11-23T05:16:23;72.67;;;30.30;;
41887;SDS011;63122;52.424;13.458;2022-11-23T05:18:53;67.33;;;27.97;;
41887;SDS011;63122;52.424;13.458;2022-11-23T05:21:23;65.57;;;28.03;;
41887;SDS011;63122;52.424;13.458;2022-11-23T05:23:54;61.20;;;28.50;;
41887;SDS011;63122;52.424;13.458;2022-11-23T05:26:24;65.47;;;28.60;;
41887;SDS011;63122;52.424;13.458;2022-11-23T05:28:57;66.10;;;27.37;;
41887;SDS011;63122;52.424;13.458;2022-11-23T05:31:27;63.13;;;27.83;;
41887;SDS011;63122;52.424;13.458;2022-11-23T05:33:57;60.57;;;26.80;;
41887;SDS011;63122;52.424;13.458;2022-11-23T05:36:27;58.43;;;26.17;;
41887;SDS011;63122;52.424;13.458;2022-11-23T05:38:58;66.57;;;29.57;;
41887;SDS011;63122;52.424;13.458;2022-11-23T05:41:28;64.43;;;27.93;;
41887;SDS011;63122;52.424;13.458;2022-11-23T05:44:01;63.00;;;26.70;;
41887;SDS011;63122;52.424;13.458;2022-11-23T05:46:30;65.93;;;27.43;;
41887;SDS011;63122;52.424;13.458;2022-11-23T05:49:01;67.83;;;28.03;;
41887;SDS011;63122;52.424;13.458;2022-11-23T05:51:31;56.70;;;26.33;;
41887;SDS011;63122;52.424;13.458;2022-11-23T05:54:01;61.23;;;28.50;;
41887;SDS011;63122;52.424;13.458;2022-11-23T05:56:31;59.93;;;27.80;;
41887;SDS011;63122;52.424;13.458;2022-11-23T05:59:09;61.17;;;26.40;;
41887;SDS011;63122;52.424;13.458;2022-11-23T06:01:39;62.87;;;26.10;;
41887;SDS011;63122;52.424;13.458;2022-11-23T06:04:10;56.77;;;25.17;;
41887;SDS011;63122;52.424;13.458;2022-11-23T06:06:40;63.93;;;27.50;;
41887;SDS011;63122;52.424;13.458;2022-11-23T06:09:10;67.93;;;27.60;;
41887;SDS011;63122;52.424;13.458;2022-11-23T06:11:41;73.33;;;27.10;;
41887;SDS011;63122;52.424;13.458;2022-11-23T06:14:13;61.10;;;26.30;;
41887;SDS011;63122;52.424;13.458;2022-11-23T06:16:43;76.10;;;27.83;;
41887;SDS011;63122;52.424;13.458;2022-11-23T06:19:14;67.57;;;26.33;;
41887;SDS011;63122;52.424;13.458;2022-11-23T06:21:44;67.07;;;26.40;;
41887;SDS011;63122;52.424;13.458;2022-11-23T06:24:17;62.60;;;27.07;;
41887;SDS011;63122;52.424;13.458;2022-11-23T06:26:47;58.17;;;26.37;;
41887;SDS011;63122;52.424;13.458;2022-11-23T06:29:20;65.17;;;27.10;;
41887;SDS011;63122;52.424;13.458;2022-11-23T06:31:50;67.27;;;27.20;;
41887;SDS011;63122;52.424;13.458;2022-11-23T06:34:20;76.67;;;26.63;;
41887;SDS011;63122;52.424;13.458;2022-11-23T06:36:53;64.80;;;26.73;;
41887;SDS011;63122;52.424;13.458;2022-11-23T06:39:23;65.37;;;28.53;;
41887;SDS011;63122;52.424;13.458;2022-11-23T06:41:53;56.30;;;25.73;;
41887;SDS011;63122;52.424;13.458;2022-11-23T06:44:46;60.27;;;25.73;;
41887;SDS011;63122;52.424;13.458;2022-11-23T06:47:16;60.27;;;26.90;;
41887;SDS011;63122;52.424;13.458;2022-11-23T06:49:52;60.40;;;27.23;;
41887;SDS011;63122;52.424;13.458;2022-11-23T06:52:22;60.43;;;26.63;;
41887;SDS011;63122;52.424;13.458;2022-11-23T06:54:53;58.17;;;26.23;;
41887;SDS011;63122;52.424;13.458;2022-11-23T06:57:23;62.77;;;27.47;;
41887;SDS011;63122;52.424;13.458;2022-11-23T06:59:56;65.57;;;25.67;;
41887;SDS011;63122;52.424;13.458;2022-11-23T07:02:26;55.50;;;25.00;;
41887;SDS011;63122;52.424;13.458;2022-11-23T07:04:57;58.60;;;25.73;;
41887;SDS011;63122;52.424;13.458;2022-11-23T07:07:27;61.50;;;25.97;;
41887;SDS011;63122;52.424;13.458;2022-11-23T07:09:58;59.80;;;26.77;;
41887;SDS011;63122;52.424;13.458;2022-11-23T07:12:32;57.27;;;25.93;;
41887;SDS011;63122;52.424;13.458;2022-11-23T07:15:06;60.70;;;27.37;;
41887;SDS011;63122;52.424;13.458;2022-11-23T07:17:37;66.33;;;27.20;;
41887;SDS011;63122;52.424;13.458;2022-11-23T07:20:08;59.00;;;26.50;;
41887;SDS011;63122;52.424;13.458;2022-11-23T07:22:42;64.77;;;27.20;;
41887;SDS011;63122;52.424;13.458;2022-11-23T07:25:12;71.70;;;27.40;;
41887;SDS011;63122;52.424;13.458;2022-11-23T07:27:45;54.80;;;25.47;;
41887;SDS011;63122;52.424;13.458;2022-11-23T07:30:18;65.37;;;25.40;;
41887;SDS011;63122;52.424;13.458;2022-11-23T07:32:57;54.37;;;24.83;;
41887;SDS011;63122;52.424;13.458;2022-11-23T07:35:28;60.63;;;26.30;;
41887;SDS011;63122;52.424;13.458;2022-11-23T07:37:59;61.87;;;26.47;;
41887;SDS011;63122;52.424;13.458;2022-11-23T07:40:31;60.37;;;26.90;;
41887;SDS011;63122;52.424;13.458;2022-11-23T07:43:01;60.77;;;26.03;;
41887;SDS011;63122;52.424;13.458;2022-11-23T07:45:38;54.90;;;25.37;;
41887;SDS011;63122;52.424;13.458;2022-11-23T07:48:11;56.70;;;28.07;;
41887;SDS011;63122;52.424;13.458;2022-11-23T07:50:46;60.00;;;26.57;;
41887;SDS011;63122;52.424;13.458;2022-11-23T07:53:16;60.17;;;27.93;;
41887;SDS011;63122;52.424;13.458;2022-11-23T07:55:47;53.93;;;26.63;;
41887;SDS011;63122;52.424;13.458;2022-11-23T07:58:17;53.43;;;25.27;;
41887;SDS011;63122;52.424;13.458;2022-11-23T08:00:50;58.73;;;26.20;;
41887;SDS011;63122;52.424;13.458;2022-11-23T08:03:20;49.43;;;24.90;;
41887;SDS011;63122;52.424;13.458;2022-11-23T08:05:55;55.57;;;24.80;;
41887;SDS011;63122;52.424;13.458;2022-11-23T08:08:25;49.30;;;23.80;;
41887;SDS011;63122;52.424;13.458;2022-11-23T08:10:56;52.20;;;23.87;;
41887;SDS011;63122;52.424;13.458;2022-11-23T08:13:26;51.47;;;24.00;;
41887;SDS011;63122;52.424;13.458;2022-11-23T08:16:00;49.00;;;23.73;;
41887;SDS011;63122;52.424;13.458;2022-11-23T08:18:33;51.37;;;24.40;;
41887;SDS011;63122;52.424;13.458;2022-11-23T08:24:51;45.50;;;22.13;;
41887;SDS011;63122;52.424;13.458;2022-11-23T08:27:56;46.60;;;24.47;;
41887;SDS011;63122;52.424;13.458;2022-11-23T08:30:32;47.13;;;23.43;;
41887;SDS011;63122;52.424;13.458;2022-11-23T08:33:06;45.70;;;22.07;;
41887;SDS011;63122;52.424;13.458;2022-11-23T08:35:37;43.77;;;22.43;;
41887;SDS011;63122;52.424;13.458;2022-11-23T08:38:09;43.90;;;22.67;;
41887;SDS011;63122;52.424;13.458;2022-11-23T08:40:39;45.93;;;22.87;;
41887;SDS011;63122;52.424;13.458;2022-11-23T08:43:10;44.03;;;22.50;;
41887;SDS011;63122;52.424;13.458;2022-11-23T08:45:40;42.17;;;21.33;;
41887;SDS011;63122;52.424;13.458;2022-11-23T08:48:13;46.80;;;22.53;;
41887;SDS011;63122;52.424;13.458;2022-11-23T08:50:43;47.60;;;22.43;;
41887;SDS011;63122;52.424;13.458;2022-11-23T08:53:13;43.13;;;22.67;;
41887;SDS011;63122;52.424;13.458;2022-11-23T08:55:43;38.93;;;21.60;;
41887;SDS011;63122;52.424;13.458;2022-11-23T08:58:14;40.93;;;21.00;;
41887;SDS011;63122;52.424;13.458;2022-11-23T09:00:44;41.93;;;21.50;;
41887;SDS011;63122;52.424;13.458;2022-11-23T09:03:17;43.50;;;22.20;;
41887;SDS011;63122;52.424;13.458;2022-11-23T09:05:48;43.63;;;22.43;;
41887;SDS011;63122;52.424;13.458;2022-11-23T09:08:20;42.73;;;22.07;;
41887;SDS011;63122;52.424;13.458;2022-11-23T09:10:50;45.03;;;21.10;;
41887;SDS011;63122;52.424;13.458;2022-11-23T09:13:20;49.87;;;22.17;;
41887;SDS011;63122;52.424;13.458;2022-11-23T09:15:50;42.47;;;21.37;;
41887;SDS011;63122;52.424;13.458;2022-11-23T09:18:23;39.93;;;19.67;;
41887;SDS011;63122;52.424;13.458;2022-11-23T09:20:54;39.87;;;20.37;;
41887;SDS011;63122;52.424;13.458;2022-11-23T09:23:24;36.67;;;20.27;;
41887;SDS011;63122;52.424;13.458;2022-11-23T09:25:56;37.17;;;19.50;;
41887;SDS011;63122;52.424;13.458;2022-11-23T09:28:27;38.53;;;20.17;;
41887;SDS011;63122;52.424;13.458;2022-11-23T09:31:00;40.40;;;20.17;;
41887;SDS011;63122;52.424;13.458;2022-11-23T09:33:34;40.03;;;20.20;;
41887;SDS011;63122;52.424;13.458;2022-11-23T09:36:04;39.33;;;19.90;;
41887;SDS011;63122;52.424;13.458;2022-11-23T09:38:35;36.93;;;20.00;;
41887;SDS011;63122;52.424;13.458;2022-11-23T09:41:38;37.73;;;20.27;;
41887;SDS011;63122;52.424;13.458;2022-11-23T09:44:28;33.90;;;18.97;;
41887;SDS011;63122;52.424;13.458;2022-11-23T09:47:08;36.50;;;19.43;;
41887;SDS011;63122;52.424;13.458;2022-11-23T09:49:59;33.93;;;19.47;;
41887;SDS011;63122;52.424;13.458;2022-11-23T09:52:39;37.20;;;18.63;;
41887;SDS011;63122;52.424;13.458;2022-11-23T09:55:14;33.27;;;17.50;;
41887;SDS011;63122;52.424;13.458;2022-11-23T09:57:50;31.17;;;17.20;;
41887;SDS011;63122;52.424;13.458;2022-11-23T10:00:26;29.87;;;17.10;;
41887;SDS011;63122;52.424;13.458;2022-11-23T10:02:58;34.90;;;17.70;;
41887;SDS011;63122;52.424;13.458;2022-11-23T10:05:34;34.83;;;18.27;;
41887;SDS011;63122;52.424;13.458;2022-11-23T10:08:12;36.17;;;17.27;;
41887;SDS011;63122;52.424;13.458;2022-11-23T10:10:51;30.37;;;16.63;;
41887;SDS011;63122;52.424;13.458;2022-11-23T10:13:33;36.67;;;18.27;;
41887;SDS011;63122;52.424;13.458;2022-11-23T10:18:57;30.00;;;16.53;;
41887;SDS011;63122;52.424;13.458;2022-11-23T10:21:39;33.90;;;16.60;;
41887;SDS011;63122;52.424;13.458;2022-11-23T10:24:18;32.73;;;16.73;;
41887;SDS011;63122;52.424;13.458;2022-11-23T10:26:54;29.07;;;16.13;;
41887;SDS011;63122;52.424;13.458;2022-11-23T10:29:26;30.00;;;16.40;;
41887;SDS011;63122;52.424;13.458;2022-11-23T10:31:59;29.67;;;16.23;;
41887;SDS011;63122;52.424;13.458;2022-11-23T10:34:34;29.33;;;16.80;;
41887;SDS011;63122;52.424;13.458;2022-11-23T10:37:18;31.90;;;16.33;;
41887;SDS011;63122;52.424;13.458;2022-11-23T10:39:48;25.67;;;15.07;;
41887;SDS011;63122;52.424;13.458;2022-11-23T10:42:20;27.63;;;14.77;;
41887;SDS011;63122;52.424;13.458;2022-11-23T10:44:54;26.17;;;14.80;;
41887;SDS011;63122;52.424;13.458;2022-11-23T10:47:33;25.83;;;15.03;;
41887;SDS011;63122;52.424;13.458;2022-11-23T10:50:22;28.00;;;15.20;;
41887;SDS011;63122;52.424;13.458;2022-11-23T10:52:59;27.97;;;14.03;;
41887;SDS011;63122;52.424;13.458;2022-11-23T10:55:45;28.83;;;14.07;;
41887;SDS011;63122;52.424;13.458;2022-11-23T10:58:23;30.57;;;15.63;;
41887;SDS011;63122;52.424;13.458;2022-11-23T11:00:58;24.67;;;14.63;;
41887;SDS011;63122;52.424;13.458;2022-11-23T11:03:30;30.30;;;14.90;;
41887;SDS011;63122;52.424;13.458;2022-11-23T11:06:02;25.03;;;14.90;;
41887;SDS011;63122;52.424;13.458;2022-11-23T11:11:51;29.10;;;15.50;;
41887;SDS011;63122;52.424;13.458;2022-11-23T11:14:23;25.10;;;15.17;;
41887;SDS011;63122;52.424;13.458;2022-11-23T11:17:09;26.63;;;15.33;;
41887;SDS011;63122;52.424;13.458;2022-11-23T11:23:00;29.10;;;14.73;;
41887;SDS011;63122;52.424;13.458;2022-11-23T11:25:35;25.73;;;15.13;;
41887;SDS011;63122;52.424;13.458;2022-11-23T11:31:30;27.70;;;14.70;;
41887;SDS011;63122;52.424;13.458;2022-11-23T11:34:09;24.03;;;14.13;;
41887;SDS011;63122;52.424;13.458;2022-11-23T11:36:49;22.80;;;13.53;;
41887;SDS011;63122;52.424;13.458;2022-11-23T11:39:27;22.13;;;14.07;;
41887;SDS011;63122;52.424;13.458;2022-11-23T11:42:05;29.00;;;14.90;;
41887;SDS011;63122;52.424;13.458;2022-11-23T11:44:45;23.27;;;13.40;;
41887;SDS011;63122;52.424;13.458;2022-11-23T11:47:24;25.07;;;15.23;;
41887;SDS011;63122;52.424;13.458;2022-11-23T11:50:00;25.00;;;13.27;;
41887;SDS011;63122;52.424;13.458;2022-11-23T11:52:41;30.03;;;18.27;;
41887;SDS011;63122;52.424;13.458;2022-11-23T11:55:16;26.10;;;14.20;;
41887;SDS011;63122;52.424;13.458;2022-11-23T11:57:59;23.23;;;14.03;;
41887;SDS011;63122;52.424;13.458;2022-11-23T12:00:41;28.23;;;13.10;;
41887;SDS011;63122;52.424;13.458;2022-11-23T12:03:17;22.50;;;13.10;;
41887;SDS011;63122;52.424;13.458;2022-11-23T12:06:19;21.20;;;13.00;;
41887;SDS011;63122;52.424;13.458;2022-11-23T12:09:14;23.23;;;13.73;;
41887;SDS011;63122;52.424;13.458;2022-11-23T12:11:55;23.30;;;13.70;;
41887;SDS011;63122;52.424;13.458;2022-11-23T12:14:33;22.27;;;13.93;;
41887;SDS011;63122;52.424;13.458;2022-11-23T12:17:07;22.40;;;14.17;;
41887;SDS011;63122;52.424;13.458;2022-11-23T12:20:02;34.13;;;15.93;;
41887;SDS011;63122;52.424;13.458;2022-11-23T12:22:39;26.00;;;14.70;;
41887;SDS011;63122;52.424;13.458;2022-11-23T12:25:23;20.73;;;13.33;;
41887;SDS011;63122;52.424;13.458;2022-11-23T12:28:04;21.47;;;13.70;;
41887;SDS011;63122;52.424;13.458;2022-11-23T12:30:46;23.10;;;13.60;;
41887;SDS011;63122;52.424;13.458;2022-11-23T12:36:39;19.90;;;12.40;;
41887;SDS011;63122;52.424;13.458;2022-11-23T12:39:26;21.53;;;12.50;;
41887;SDS011;63122;52.424;13.458;2022-11-23T12:42:14;22.40;;;12.50;;
41887;SDS011;63122;52.424;13.458;2022-11-23T12:45:04;20.00;;;12.77;;
41887;SDS011;63122;52.424;13.458;2022-11-23T12:47:53;22.40;;;13.03;;
41887;SDS011;63122;52.424;13.458;2022-11-23T12:50:33;18.47;;;12.37;;
41887;SDS011;63122;52.424;13.458;2022-11-23T12:53:18;21.23;;;12.57;;
41887;SDS011;63122;52.424;13.458;2022-11-23T12:56:05;24.90;;;13.03;;
41887;SDS011;63122;52.424;13.458;2022-11-23T12:58:41;20.93;;;12.17;;
41887;SDS011;63122;52.424;13.458;2022-11-23T13:01:15;20.63;;;12.20;;
41887;SDS011;63122;52.424;13.458;2022-11-23T13:10:22;20.00;;;12.10;;
41887;SDS011;63122;52.424;13.458;2022-11-23T13:13:04;22.27;;;12.00;;
41887;SDS011;63122;52.424;13.458;2022-11-23T13:15:52;20.33;;;11.50;;
41887;SDS011;63122;52.424;13.458;2022-11-23T13:18:41;20.00;;;12.27;;
41887;SDS011;63122;52.424;13.458;2022-11-23T13:21:29;23.10;;;11.93;;
41887;SDS011;63122;52.424;13.458;2022-11-23T13:24:25;21.10;;;11.63;;
41887;SDS011;63122;52.424;13.458;2022-11-23T13:33:23;19.37;;;11.47;;
41887;SDS011;63122;52.424;13.458;2022-11-23T13:36:03;21.10;;;11.53;;
41887;SDS011;63122;52.424;13.458;2022-11-23T13:38:42;19.40;;;11.23;;
41887;SDS011;63122;52.424;13.458;2022-11-23T13:44:26;19.83;;;12.30;;
41887;SDS011;63122;52.424;13.458;2022-11-23T13:47:02;21.80;;;11.83;;
41887;SDS011;63122;52.424;13.458;2022-11-23T13:49:39;23.07;;;12.13;;
41887;SDS011;63122;52.424;13.458;2022-11-23T13:52:21;20.43;;;11.27;;
41887;SDS011;63122;52.424;13.458;2022-11-23T13:55:05;20.60;;;11.90;;
41887;SDS011;63122;52.424;13.458;2022-11-23T14:00:50;23.93;;;14.17;;
41887;SDS011;63122;52.424;13.458;2022-11-23T14:06:31;20.57;;;12.60;;
41887;SDS011;63122;52.424;13.458;2022-11-23T14:09:16;19.67;;;12.33;;
41887;SDS011;63122;52.424;13.458;2022-11-23T14:12:00;23.17;;;12.60;;
41887;SDS011;63122;52.424;13.458;2022-11-23T14:14:45;25.27;;;13.17;;
41887;SDS011;63122;52.424;13.458;2022-11-23T14:28:05;22.43;;;12.30;;
41887;SDS011;63122;52.424;13.458;2022-11-23T14:32:30;21.93;;;12.73;;
41887;SDS011;63122;52.424;13.458;2022-11-23T14:36:26;19.23;;;13.03;;
41887;SDS011;63122;52.424;13.458;2022-11-23T14:42:38;22.63;;;12.97;;
41887;SDS011;63122;52.424;13.458;2022-11-23T14:45:14;30.00;;;13.83;;
41887;SDS011;63122;52.424;13.458;2022-11-23T14:47:44;23.37;;;13.60;;
41887;SDS011;63122;52.424;13.458;2022-11-23T14:50:19;21.13;;;13.07;;
41887;SDS011;63122;52.424;13.458;2022-11-23T14:52:51;20.27;;;12.50;;
41887;SDS011;63122;52.424;13.458;2022-11-23T14:55:25;20.40;;;13.17;;
41887;SDS011;63122;52.424;13.458;2022-11-23T15:15:27;18.80;;;11.87;;
41887;SDS011;63122;52.424;13.458;2022-11-23T15:36:13;21.20;;;12.97;;
41887;SDS011;63122;52.424;13.458;2022-11-23T15:39:11;22.37;;;12.27;;
41887;SDS011;63122;52.424;13.458;2022-11-23T15:51:21;22.30;;;13.23;;
41887;SDS011;63122;52.424;13.458;2022-11-23T15:53:56;21.50;;;11.97;;
41887;SDS011;63122;52.424;13.458;2022-11-23T15:56:28;23.97;;;12.93;;
41887;SDS011;63122;52.424;13.458;2022-11-23T15:59:02;23.97;;;12.80;;
41887;SDS011;63122;52.424;13.458;2022-11-23T16:01:34;21.37;;;12.53;;
41887;SDS011;63122;52.424;13.458;2022-11-23T16:04:19;23.23;;;12.80;;
41887;SDS011;63122;52.424;13.458;2022-11-23T16:06:57;26.87;;;13.17;;
41887;SDS011;63122;52.424;13.458;2022-11-23T16:09:44;24.43;;;12.57;;
41887;SDS011;63122;52.424;13.458;2022-11-23T16:12:22;19.40;;;12.10;;
41887;SDS011;63122;52.424;13.458;2022-11-23T16:14:57;21.83;;;12.83;;
41887;SDS011;63122;52.424;13.458;2022-11-23T16:17:48;22.83;;;12.77;;
41887;SDS011;63122;52.424;13.458;2022-11-23T16:20:19;25.67;;;13.30;;
41887;SDS011;63122;52.424;13.458;2022-11-23T16:22:53;26.87;;;12.97;;
41887;SDS011;63122;52.424;13.458;2022-11-23T16:25:26;25.13;;;12.90;;
41887;SDS011;63122;52.424;13.458;2022-11-23T16:27:59;20.73;;;12.07;;
41887;SDS011;63122;52.424;13.458;2022-11-23T16:30:34;19.17;;;11.53;;
41887;SDS011;63122;52.424;13.458;2022-11-23T16:33:07;20.00;;;12.70;;
41887;SDS011;63122;52.424;13.458;2022-11-23T16:35:42;23.93;;;13.07;;
41887;SDS011;63122;52.424;13.458;2022-11-23T16:38:15;20.43;;;12.63;;